sensor_id;sensor_type;location;lat;lon;timestamp;P1;durP1;ratioP1;P2;durP2;ratioP2
12145;SDS011;6136;47.032;15.398;2023-06-14T00:00:01;4.43;;;3.07;;
12145;SDS011;6136;47.032;15.398;2023-06-14T00:02:30;4.17;;;3.30;;
12145;SDS011;6136;47.032;15.398;2023-06-14T00:05:00;2.90;;;2.70;;
12145;SDS011;6136;47.032;15.398;2023-06-14T00:07:35;3.13;;;2.80;;
12145;SDS011;6136;47.032;15.398;2023-06-14T00:10:05;5.17;;;3.43;;
12145;SDS011;6136;47.032;15.398;2023-06-14T00:12:34;4.30;;;2.50;;
12145;SDS011;6136;47.032;15.398;2023-06-14T00:15:03;4.23;;;3.30;;
12145;SDS011;6136;47.032;15.398;2023-06-14T00:17:32;3.50;;;3.20;;
12145;SDS011;6136;47.032;15.398;2023-06-14T00:20:02;3.70;;;2.83;;
12145;SDS011;6136;47.032;15.398;2023-06-14T00:22:34;3.70;;;3.00;;
12145;SDS011;6136;47.032;15.398;2023-06-14T00:25:03;3.50;;;3.20;;
12145;SDS011;6136;47.032;15.398;2023-06-14T00:27:45;3.30;;;2.90;;
12145;SDS011;6136;47.032;15.398;2023-06-14T00:30:14;4.30;;;2.90;;
12145;SDS011;6136;47.032;15.398;2023-06-14T00:32:43;4.60;;;3.00;;
12145;SDS011;6136;47.032;15.398;2023-06-14T00:35:13;2.80;;;2.47;;
12145;SDS011;6136;47.032;15.398;2023-06-14T00:37:41;3.87;;;2.90;;
12145;SDS011;6136;47.032;15.398;2023-06-14T00:40:09;3.30;;;2.80;;
12145;SDS011;6136;47.032;15.398;2023-06-14T00:42:38;2.83;;;2.60;;
12145;SDS011;6136;47.032;15.398;2023-06-14T00:45:07;3.40;;;3.07;;
12145;SDS011;6136;47.032;15.398;2023-06-14T00:47:35;3.07;;;2.50;;
12145;SDS011;6136;47.032;15.398;2023-06-14T00:50:06;4.50;;;3.17;;
12145;SDS011;6136;47.032;15.398;2023-06-14T00:52:37;4.13;;;2.77;;
12145;SDS011;6136;47.032;15.398;2023-06-14T00:55:06;5.00;;;3.13;;
12145;SDS011;6136;47.032;15.398;2023-06-14T00:57:35;5.53;;;3.07;;
12145;SDS011;6136;47.032;15.398;2023-06-14T01:00:05;6.10;;;3.17;;
12145;SDS011;6136;47.032;15.398;2023-06-14T01:02:35;3.37;;;3.00;;
12145;SDS011;6136;47.032;15.398;2023-06-14T01:05:07;3.43;;;2.87;;
12145;SDS011;6136;47.032;15.398;2023-06-14T01:10:44;4.63;;;2.70;;
12145;SDS011;6136;47.032;15.398;2023-06-14T01:13:20;6.57;;;2.97;;
12145;SDS011;6136;47.032;15.398;2023-06-14T01:15:51;3.47;;;2.97;;
12145;SDS011;6136;47.032;15.398;2023-06-14T01:18:20;3.23;;;2.90;;
12145;SDS011;6136;47.032;15.398;2023-06-14T01:20:53;4.03;;;3.23;;
12145;SDS011;6136;47.032;15.398;2023-06-14T01:23:25;3.63;;;3.27;;
12145;SDS011;6136;47.032;15.398;2023-06-14T01:25:59;4.37;;;2.70;;
12145;SDS011;6136;47.032;15.398;2023-06-14T01:28:30;3.33;;;2.97;;
12145;SDS011;6136;47.032;15.398;2023-06-14T01:31:00;3.93;;;3.33;;
12145;SDS011;6136;47.032;15.398;2023-06-14T01:33:32;3.67;;;3.30;;
12145;SDS011;6136;47.032;15.398;2023-06-14T01:36:02;5.13;;;3.10;;
12145;SDS011;6136;47.032;15.398;2023-06-14T01:38:34;3.73;;;2.93;;
12145;SDS011;6136;47.032;15.398;2023-06-14T01:41:04;3.67;;;3.27;;
12145;SDS011;6136;47.032;15.398;2023-06-14T01:43:33;6.43;;;3.47;;
12145;SDS011;6136;47.032;15.398;2023-06-14T01:46:04;5.13;;;3.67;;
12145;SDS011;6136;47.032;15.398;2023-06-14T01:48:33;9.03;;;3.63;;
12145;SDS011;6136;47.032;15.398;2023-06-14T01:51:03;3.93;;;3.50;;
12145;SDS011;6136;47.032;15.398;2023-06-14T01:53:31;3.97;;;3.23;;
12145;SDS011;6136;47.032;15.398;2023-06-14T01:56:00;4.30;;;3.10;;
12145;SDS011;6136;47.032;15.398;2023-06-14T01:58:30;3.33;;;3.03;;
12145;SDS011;6136;47.032;15.398;2023-06-14T02:00:58;5.97;;;2.80;;
12145;SDS011;6136;47.032;15.398;2023-06-14T02:03:27;3.87;;;3.30;;
12145;SDS011;6136;47.032;15.398;2023-06-14T02:05:56;4.43;;;3.27;;
12145;SDS011;6136;47.032;15.398;2023-06-14T02:08:25;3.57;;;3.17;;
12145;SDS011;6136;47.032;15.398;2023-06-14T02:10:53;4.27;;;3.20;;
12145;SDS011;6136;47.032;15.398;2023-06-14T02:13:22;4.37;;;3.57;;
12145;SDS011;6136;47.032;15.398;2023-06-14T02:15:51;3.97;;;3.57;;
12145;SDS011;6136;47.032;15.398;2023-06-14T02:18:21;4.17;;;3.00;;
12145;SDS011;6136;47.032;15.398;2023-06-14T02:20:49;4.40;;;3.50;;
12145;SDS011;6136;47.032;15.398;2023-06-14T02:23:17;3.17;;;2.87;;
12145;SDS011;6136;47.032;15.398;2023-06-14T02:25:46;5.33;;;3.33;;
12145;SDS011;6136;47.032;15.398;2023-06-14T02:28:14;4.60;;;2.90;;
12145;SDS011;6136;47.032;15.398;2023-06-14T02:30:43;3.37;;;2.87;;
12145;SDS011;6136;47.032;15.398;2023-06-14T02:33:12;3.40;;;2.90;;
12145;SDS011;6136;47.032;15.398;2023-06-14T02:35:40;3.67;;;3.27;;
12145;SDS011;6136;47.032;15.398;2023-06-14T02:38:08;3.60;;;3.13;;
12145;SDS011;6136;47.032;15.398;2023-06-14T02:40:36;4.13;;;2.93;;
12145;SDS011;6136;47.032;15.398;2023-06-14T02:43:04;4.63;;;2.97;;
12145;SDS011;6136;47.032;15.398;2023-06-14T02:45:32;6.07;;;2.83;;
12145;SDS011;6136;47.032;15.398;2023-06-14T02:48:02;3.53;;;3.23;;
12145;SDS011;6136;47.032;15.398;2023-06-14T02:50:30;4.43;;;3.17;;
12145;SDS011;6136;47.032;15.398;2023-06-14T02:52:58;6.07;;;3.20;;
12145;SDS011;6136;47.032;15.398;2023-06-14T02:55:27;3.20;;;2.87;;
12145;SDS011;6136;47.032;15.398;2023-06-14T02:57:55;3.00;;;2.70;;
12145;SDS011;6136;47.032;15.398;2023-06-14T03:00:25;3.80;;;2.93;;
12145;SDS011;6136;47.032;15.398;2023-06-14T03:02:53;4.47;;;3.70;;
12145;SDS011;6136;47.032;15.398;2023-06-14T03:05:23;4.57;;;3.43;;
12145;SDS011;6136;47.032;15.398;2023-06-14T03:07:54;3.73;;;3.30;;
12145;SDS011;6136;47.032;15.398;2023-06-14T03:10:23;4.10;;;3.10;;
12145;SDS011;6136;47.032;15.398;2023-06-14T03:12:56;4.57;;;3.23;;
12145;SDS011;6136;47.032;15.398;2023-06-14T03:15:24;6.57;;;3.90;;
12145;SDS011;6136;47.032;15.398;2023-06-14T03:17:54;8.37;;;3.60;;
12145;SDS011;6136;47.032;15.398;2023-06-14T03:20:24;3.27;;;3.00;;
12145;SDS011;6136;47.032;15.398;2023-06-14T03:22:55;4.20;;;3.60;;
12145;SDS011;6136;47.032;15.398;2023-06-14T03:25:24;3.53;;;3.13;;
12145;SDS011;6136;47.032;15.398;2023-06-14T03:27:56;3.40;;;3.10;;
12145;SDS011;6136;47.032;15.398;2023-06-14T03:30:24;3.97;;;3.30;;
12145;SDS011;6136;47.032;15.398;2023-06-14T03:32:52;6.53;;;3.20;;
12145;SDS011;6136;47.032;15.398;2023-06-14T03:35:25;3.93;;;3.47;;
12145;SDS011;6136;47.032;15.398;2023-06-14T03:37:53;5.87;;;3.73;;
12145;SDS011;6136;47.032;15.398;2023-06-14T03:40:23;4.27;;;3.53;;
12145;SDS011;6136;47.032;15.398;2023-06-14T03:42:59;3.60;;;3.30;;
12145;SDS011;6136;47.032;15.398;2023-06-14T03:45:27;3.30;;;3.00;;
12145;SDS011;6136;47.032;15.398;2023-06-14T03:47:57;3.97;;;3.20;;
12145;SDS011;6136;47.032;15.398;2023-06-14T03:50:30;3.73;;;3.10;;
12145;SDS011;6136;47.032;15.398;2023-06-14T03:52:59;8.63;;;3.30;;
12145;SDS011;6136;47.032;15.398;2023-06-14T03:55:30;3.87;;;3.30;;
12145;SDS011;6136;47.032;15.398;2023-06-14T03:58:03;5.77;;;3.37;;
12145;SDS011;6136;47.032;15.398;2023-06-14T04:00:31;4.13;;;3.37;;
12145;SDS011;6136;47.032;15.398;2023-06-14T04:03:00;4.17;;;3.70;;
12145;SDS011;6136;47.032;15.398;2023-06-14T04:05:32;7.93;;;3.40;;
12145;SDS011;6136;47.032;15.398;2023-06-14T04:08:00;4.17;;;3.43;;
12145;SDS011;6136;47.032;15.398;2023-06-14T04:10:30;3.97;;;3.57;;
12145;SDS011;6136;47.032;15.398;2023-06-14T04:12:59;5.03;;;3.40;;
12145;SDS011;6136;47.032;15.398;2023-06-14T04:15:27;5.40;;;3.77;;
12145;SDS011;6136;47.032;15.398;2023-06-14T04:17:57;5.17;;;3.47;;
12145;SDS011;6136;47.032;15.398;2023-06-14T04:20:27;3.60;;;3.20;;
12145;SDS011;6136;47.032;15.398;2023-06-14T04:23:10;6.00;;;3.27;;
12145;SDS011;6136;47.032;15.398;2023-06-14T04:25:39;4.33;;;2.93;;
12145;SDS011;6136;47.032;15.398;2023-06-14T04:28:12;4.40;;;3.63;;
12145;SDS011;6136;47.032;15.398;2023-06-14T04:30:43;4.03;;;3.10;;
12145;SDS011;6136;47.032;15.398;2023-06-14T04:33:15;3.37;;;3.07;;
12145;SDS011;6136;47.032;15.398;2023-06-14T04:35:44;3.63;;;3.17;;
12145;SDS011;6136;47.032;15.398;2023-06-14T04:38:16;3.57;;;3.27;;
12145;SDS011;6136;47.032;15.398;2023-06-14T04:40:45;4.67;;;3.40;;
12145;SDS011;6136;47.032;15.398;2023-06-14T04:43:17;4.53;;;3.60;;
12145;SDS011;6136;47.032;15.398;2023-06-14T04:45:52;5.10;;;3.07;;
12145;SDS011;6136;47.032;15.398;2023-06-14T04:48:21;4.07;;;3.40;;
12145;SDS011;6136;47.032;15.398;2023-06-14T04:50:49;4.17;;;3.77;;
12145;SDS011;6136;47.032;15.398;2023-06-14T04:53:21;5.73;;;3.47;;
12145;SDS011;6136;47.032;15.398;2023-06-14T04:55:53;3.60;;;3.30;;
12145;SDS011;6136;47.032;15.398;2023-06-14T04:58:21;4.00;;;3.60;;
12145;SDS011;6136;47.032;15.398;2023-06-14T05:00:51;6.80;;;3.83;;
12145;SDS011;6136;47.032;15.398;2023-06-14T05:03:19;3.40;;;3.07;;
12145;SDS011;6136;47.032;15.398;2023-06-14T05:05:48;3.93;;;3.53;;
12145;SDS011;6136;47.032;15.398;2023-06-14T05:08:17;4.63;;;3.03;;
12145;SDS011;6136;47.032;15.398;2023-06-14T05:10:47;4.70;;;3.93;;
12145;SDS011;6136;47.032;15.398;2023-06-14T05:13:15;6.00;;;4.00;;
12145;SDS011;6136;47.032;15.398;2023-06-14T05:15:45;4.57;;;4.00;;
12145;SDS011;6136;47.032;15.398;2023-06-14T05:18:14;5.83;;;4.20;;
12145;SDS011;6136;47.032;15.398;2023-06-14T05:20:42;3.37;;;3.07;;
12145;SDS011;6136;47.032;15.398;2023-06-14T05:23:10;4.00;;;3.57;;
12145;SDS011;6136;47.032;15.398;2023-06-14T05:25:42;3.83;;;3.40;;
12145;SDS011;6136;47.032;15.398;2023-06-14T05:28:12;4.00;;;3.27;;
12145;SDS011;6136;47.032;15.398;2023-06-14T05:30:40;3.90;;;3.50;;
12145;SDS011;6136;47.032;15.398;2023-06-14T05:33:08;5.80;;;3.20;;
12145;SDS011;6136;47.032;15.398;2023-06-14T05:35:36;4.30;;;3.53;;
12145;SDS011;6136;47.032;15.398;2023-06-14T05:38:05;4.17;;;3.70;;
12145;SDS011;6136;47.032;15.398;2023-06-14T05:40:34;4.07;;;3.67;;
12145;SDS011;6136;47.032;15.398;2023-06-14T05:43:02;4.70;;;3.33;;
12145;SDS011;6136;47.032;15.398;2023-06-14T05:45:32;3.43;;;3.00;;
12145;SDS011;6136;47.032;15.398;2023-06-14T05:48:00;4.40;;;3.30;;
12145;SDS011;6136;47.032;15.398;2023-06-14T05:50:28;4.10;;;3.30;;
12145;SDS011;6136;47.032;15.398;2023-06-14T05:52:56;3.93;;;3.53;;
12145;SDS011;6136;47.032;15.398;2023-06-14T05:55:24;6.87;;;3.73;;
12145;SDS011;6136;47.032;15.398;2023-06-14T05:57:53;3.33;;;3.03;;
12145;SDS011;6136;47.032;15.398;2023-06-14T06:00:21;4.00;;;3.40;;
12145;SDS011;6136;47.032;15.398;2023-06-14T06:02:50;5.33;;;3.27;;
12145;SDS011;6136;47.032;15.398;2023-06-14T06:05:18;4.57;;;3.57;;
12145;SDS011;6136;47.032;15.398;2023-06-14T06:07:47;5.00;;;3.37;;
12145;SDS011;6136;47.032;15.398;2023-06-14T06:10:15;4.17;;;3.17;;
12145;SDS011;6136;47.032;15.398;2023-06-14T06:12:43;4.37;;;3.47;;
12145;SDS011;6136;47.032;15.398;2023-06-14T06:15:13;3.70;;;3.33;;
12145;SDS011;6136;47.032;15.398;2023-06-14T06:17:42;7.40;;;4.13;;
12145;SDS011;6136;47.032;15.398;2023-06-14T06:20:22;5.33;;;3.77;;
12145;SDS011;6136;47.032;15.398;2023-06-14T06:22:55;3.97;;;3.63;;
12145;SDS011;6136;47.032;15.398;2023-06-14T06:25:24;5.67;;;4.00;;
12145;SDS011;6136;47.032;15.398;2023-06-14T06:27:52;6.70;;;4.20;;
12145;SDS011;6136;47.032;15.398;2023-06-14T06:30:22;4.57;;;4.17;;
12145;SDS011;6136;47.032;15.398;2023-06-14T06:32:50;7.00;;;3.80;;
12145;SDS011;6136;47.032;15.398;2023-06-14T06:35:19;5.10;;;3.57;;
12145;SDS011;6136;47.032;15.398;2023-06-14T06:37:49;7.43;;;4.30;;
12145;SDS011;6136;47.032;15.398;2023-06-14T06:40:17;4.80;;;4.13;;
12145;SDS011;6136;47.032;15.398;2023-06-14T06:42:46;3.97;;;3.30;;
12145;SDS011;6136;47.032;15.398;2023-06-14T06:45:17;4.50;;;3.93;;
12145;SDS011;6136;47.032;15.398;2023-06-14T06:47:45;7.03;;;3.70;;
12145;SDS011;6136;47.032;15.398;2023-06-14T06:50:13;4.53;;;3.50;;
12145;SDS011;6136;47.032;15.398;2023-06-14T06:52:42;4.33;;;3.73;;
12145;SDS011;6136;47.032;15.398;2023-06-14T06:55:13;4.50;;;3.77;;
12145;SDS011;6136;47.032;15.398;2023-06-14T06:57:41;4.30;;;3.90;;
12145;SDS011;6136;47.032;15.398;2023-06-14T07:00:10;5.10;;;4.60;;
12145;SDS011;6136;47.032;15.398;2023-06-14T07:02:39;5.87;;;4.10;;
12145;SDS011;6136;47.032;15.398;2023-06-14T07:05:08;5.97;;;4.23;;
12145;SDS011;6136;47.032;15.398;2023-06-14T07:07:36;5.37;;;4.30;;
12145;SDS011;6136;47.032;15.398;2023-06-14T07:10:05;5.40;;;3.97;;
12145;SDS011;6136;47.032;15.398;2023-06-14T07:12:35;4.27;;;3.87;;
12145;SDS011;6136;47.032;15.398;2023-06-14T07:15:06;6.17;;;4.03;;
12145;SDS011;6136;47.032;15.398;2023-06-14T07:17:35;5.00;;;4.50;;
12145;SDS011;6136;47.032;15.398;2023-06-14T07:20:04;4.07;;;3.60;;
12145;SDS011;6136;47.032;15.398;2023-06-14T07:22:40;5.63;;;4.27;;
12145;SDS011;6136;47.032;15.398;2023-06-14T07:25:09;4.67;;;3.93;;
12145;SDS011;6136;47.032;15.398;2023-06-14T07:27:42;6.83;;;4.10;;
12145;SDS011;6136;47.032;15.398;2023-06-14T07:30:11;6.83;;;4.20;;
12145;SDS011;6136;47.032;15.398;2023-06-14T07:32:39;5.33;;;4.37;;
12145;SDS011;6136;47.032;15.398;2023-06-14T07:35:08;4.37;;;3.67;;
12145;SDS011;6136;47.032;15.398;2023-06-14T07:37:36;11.90;;;3.93;;
12145;SDS011;6136;47.032;15.398;2023-06-14T07:40:05;5.53;;;3.97;;
12145;SDS011;6136;47.032;15.398;2023-06-14T07:42:34;6.03;;;3.90;;
12145;SDS011;6136;47.032;15.398;2023-06-14T07:45:05;4.37;;;3.43;;
12145;SDS011;6136;47.032;15.398;2023-06-14T07:47:33;5.13;;;3.57;;
12145;SDS011;6136;47.032;15.398;2023-06-14T07:50:02;5.63;;;4.07;;
12145;SDS011;6136;47.032;15.398;2023-06-14T07:52:32;4.63;;;3.93;;
12145;SDS011;6136;47.032;15.398;2023-06-14T07:55:01;5.47;;;3.90;;
12145;SDS011;6136;47.032;15.398;2023-06-14T07:57:29;4.10;;;3.70;;
12145;SDS011;6136;47.032;15.398;2023-06-14T07:59:57;5.23;;;4.17;;
12145;SDS011;6136;47.032;15.398;2023-06-14T08:02:27;5.90;;;3.70;;
12145;SDS011;6136;47.032;15.398;2023-06-14T08:04:55;5.63;;;3.70;;
12145;SDS011;6136;47.032;15.398;2023-06-14T08:07:23;6.47;;;3.77;;
12145;SDS011;6136;47.032;15.398;2023-06-14T08:09:51;5.50;;;4.57;;
12145;SDS011;6136;47.032;15.398;2023-06-14T08:12:20;4.97;;;4.00;;
12145;SDS011;6136;47.032;15.398;2023-06-14T08:14:49;5.37;;;4.43;;
12145;SDS011;6136;47.032;15.398;2023-06-14T08:17:28;5.37;;;3.83;;
12145;SDS011;6136;47.032;15.398;2023-06-14T08:19:56;5.47;;;4.03;;
12145;SDS011;6136;47.032;15.398;2023-06-14T08:22:24;4.97;;;3.93;;
12145;SDS011;6136;47.032;15.398;2023-06-14T08:24:54;5.13;;;4.00;;
12145;SDS011;6136;47.032;15.398;2023-06-14T08:27:22;4.30;;;3.90;;
12145;SDS011;6136;47.032;15.398;2023-06-14T08:29:50;5.00;;;4.10;;
12145;SDS011;6136;47.032;15.398;2023-06-14T08:32:18;7.60;;;4.00;;
12145;SDS011;6136;47.032;15.398;2023-06-14T08:34:48;8.63;;;3.90;;
12145;SDS011;6136;47.032;15.398;2023-06-14T08:37:29;5.03;;;4.50;;
12145;SDS011;6136;47.032;15.398;2023-06-14T08:39:58;6.47;;;4.40;;
12145;SDS011;6136;47.032;15.398;2023-06-14T08:42:26;5.97;;;4.03;;
12145;SDS011;6136;47.032;15.398;2023-06-14T08:44:57;5.93;;;3.70;;
12145;SDS011;6136;47.032;15.398;2023-06-14T08:47:26;4.10;;;3.67;;
12145;SDS011;6136;47.032;15.398;2023-06-14T08:49:57;5.53;;;4.13;;
12145;SDS011;6136;47.032;15.398;2023-06-14T08:52:26;6.30;;;4.07;;
12145;SDS011;6136;47.032;15.398;2023-06-14T08:55:00;6.17;;;3.80;;
12145;SDS011;6136;47.032;15.398;2023-06-14T08:57:29;6.67;;;4.17;;
12145;SDS011;6136;47.032;15.398;2023-06-14T08:59:58;7.07;;;4.17;;
12145;SDS011;6136;47.032;15.398;2023-06-14T09:02:31;6.37;;;4.13;;
12145;SDS011;6136;47.032;15.398;2023-06-14T09:05:03;5.37;;;4.20;;
12145;SDS011;6136;47.032;15.398;2023-06-14T09:07:32;3.90;;;3.47;;
12145;SDS011;6136;47.032;15.398;2023-06-14T09:10:07;6.40;;;4.27;;
12145;SDS011;6136;47.032;15.398;2023-06-14T09:12:36;9.00;;;4.83;;
12145;SDS011;6136;47.032;15.398;2023-06-14T09:15:06;6.10;;;4.43;;
12145;SDS011;6136;47.032;15.398;2023-06-14T09:17:35;5.10;;;4.60;;
12145;SDS011;6136;47.032;15.398;2023-06-14T09:20:06;5.10;;;4.53;;
12145;SDS011;6136;47.032;15.398;2023-06-14T09:22:37;7.77;;;5.27;;
12145;SDS011;6136;47.032;15.398;2023-06-14T09:25:05;5.00;;;4.43;;
12145;SDS011;6136;47.032;15.398;2023-06-14T09:27:34;5.87;;;5.17;;
12145;SDS011;6136;47.032;15.398;2023-06-14T09:30:10;6.53;;;5.10;;
12145;SDS011;6136;47.032;15.398;2023-06-14T09:32:39;9.67;;;5.47;;
12145;SDS011;6136;47.032;15.398;2023-06-14T09:35:09;5.73;;;4.83;;
12145;SDS011;6136;47.032;15.398;2023-06-14T09:37:38;5.67;;;5.07;;
12145;SDS011;6136;47.032;15.398;2023-06-14T09:40:07;8.30;;;5.47;;
12145;SDS011;6136;47.032;15.398;2023-06-14T09:42:36;6.03;;;4.70;;
12145;SDS011;6136;47.032;15.398;2023-06-14T09:45:05;6.73;;;5.03;;
12145;SDS011;6136;47.032;15.398;2023-06-14T09:47:33;5.77;;;5.03;;
12145;SDS011;6136;47.032;15.398;2023-06-14T09:50:02;5.90;;;4.80;;
12145;SDS011;6136;47.032;15.398;2023-06-14T09:52:31;5.05;;;4.57;;
12145;SDS011;6136;47.032;15.398;2023-06-14T09:55:00;4.95;;;4.30;;
12145;SDS011;6136;47.032;15.398;2023-06-14T09:57:40;4.85;;;4.38;;
12145;SDS011;6136;47.032;15.398;2023-06-14T10:00:11;5.77;;;4.30;;
12145;SDS011;6136;47.032;15.398;2023-06-14T10:02:43;4.40;;;3.70;;
12145;SDS011;6136;47.032;15.398;2023-06-14T10:05:21;6.03;;;5.13;;
12145;SDS011;6136;47.032;15.398;2023-06-14T10:07:56;5.70;;;4.70;;
12145;SDS011;6136;47.032;15.398;2023-06-14T10:10:28;4.68;;;4.28;;
12145;SDS011;6136;47.032;15.398;2023-06-14T10:12:57;6.47;;;4.20;;
12145;SDS011;6136;47.032;15.398;2023-06-14T10:15:28;6.53;;;4.45;;
12145;SDS011;6136;47.032;15.398;2023-06-14T10:18:01;10.13;;;4.60;;
12145;SDS011;6136;47.032;15.398;2023-06-14T10:20:42;8.07;;;4.25;;
12145;SDS011;6136;47.032;15.398;2023-06-14T10:23:19;8.48;;;4.18;;
12145;SDS011;6136;47.032;15.398;2023-06-14T10:25:54;5.30;;;3.75;;
12145;SDS011;6136;47.032;15.398;2023-06-14T10:28:23;4.45;;;3.75;;
12145;SDS011;6136;47.032;15.398;2023-06-14T10:31:05;6.13;;;3.90;;
12145;SDS011;6136;47.032;15.398;2023-06-14T10:33:35;4.35;;;3.95;;
12145;SDS011;6136;47.032;15.398;2023-06-14T10:36:25;5.60;;;4.40;;
12145;SDS011;6136;47.032;15.398;2023-06-14T10:38:58;4.55;;;4.15;;
12145;SDS011;6136;47.032;15.398;2023-06-14T10:41:34;6.60;;;4.47;;
12145;SDS011;6136;47.032;15.398;2023-06-14T10:47:21;4.70;;;3.63;;
12145;SDS011;6136;47.032;15.398;2023-06-14T10:49:54;4.00;;;3.60;;
12145;SDS011;6136;47.032;15.398;2023-06-14T10:52:24;3.78;;;2.95;;
12145;SDS011;6136;47.032;15.398;2023-06-14T10:55:11;3.45;;;3.15;;
12145;SDS011;6136;47.032;15.398;2023-06-14T10:57:42;4.35;;;3.45;;
12145;SDS011;6136;47.032;15.398;2023-06-14T11:00:17;3.10;;;2.70;;
12145;SDS011;6136;47.032;15.398;2023-06-14T11:05:59;3.13;;;2.83;;
12145;SDS011;6136;47.032;15.398;2023-06-14T11:08:31;4.45;;;3.10;;
12145;SDS011;6136;47.032;15.398;2023-06-14T11:11:14;3.72;;;3.33;;
12145;SDS011;6136;47.032;15.398;2023-06-14T11:13:44;4.03;;;3.63;;
12145;SDS011;6136;47.032;15.398;2023-06-14T11:16:17;3.75;;;3.17;;
12145;SDS011;6136;47.032;15.398;2023-06-14T11:18:46;3.55;;;3.25;;
12145;SDS011;6136;47.032;15.398;2023-06-14T11:21:15;4.43;;;3.25;;
12145;SDS011;6136;47.032;15.398;2023-06-14T11:23:54;5.53;;;3.33;;
12145;SDS011;6136;47.032;15.398;2023-06-14T11:26:27;3.15;;;2.88;;
12145;SDS011;6136;47.032;15.398;2023-06-14T11:28:57;3.38;;;3.08;;
12145;SDS011;6136;47.032;15.398;2023-06-14T11:31:27;3.65;;;3.13;;
12145;SDS011;6136;47.032;15.398;2023-06-14T11:33:56;4.93;;;3.55;;
12145;SDS011;6136;47.032;15.398;2023-06-14T11:36:26;3.17;;;2.85;;
12145;SDS011;6136;47.032;15.398;2023-06-14T11:39:00;3.85;;;3.53;;
12145;SDS011;6136;47.032;15.398;2023-06-14T11:41:35;3.42;;;2.97;;
12145;SDS011;6136;47.032;15.398;2023-06-14T11:44:05;3.53;;;3.20;;
12145;SDS011;6136;47.032;15.398;2023-06-14T11:46:34;3.58;;;3.28;;
12145;SDS011;6136;47.032;15.398;2023-06-14T11:49:02;6.22;;;2.85;;
12145;SDS011;6136;47.032;15.398;2023-06-14T11:51:34;3.72;;;2.95;;
12145;SDS011;6136;47.032;15.398;2023-06-14T11:54:03;4.60;;;3.22;;
12145;SDS011;6136;47.032;15.398;2023-06-14T11:56:33;3.42;;;2.95;;
12145;SDS011;6136;47.032;15.398;2023-06-14T11:59:04;3.53;;;3.08;;
12145;SDS011;6136;47.032;15.398;2023-06-14T12:01:35;3.47;;;3.17;;
12145;SDS011;6136;47.032;15.398;2023-06-14T12:04:05;3.92;;;3.60;;
12145;SDS011;6136;47.032;15.398;2023-06-14T12:06:33;5.78;;;3.03;;
12145;SDS011;6136;47.032;15.398;2023-06-14T12:09:03;4.47;;;3.30;;
12145;SDS011;6136;47.032;15.398;2023-06-14T12:11:35;5.03;;;3.47;;
12145;SDS011;6136;47.032;15.398;2023-06-14T12:14:03;4.90;;;3.92;;
12145;SDS011;6136;47.032;15.398;2023-06-14T12:16:33;6.15;;;4.78;;
12145;SDS011;6136;47.032;15.398;2023-06-14T12:19:09;4.82;;;4.30;;
12145;SDS011;6136;47.032;15.398;2023-06-14T12:21:39;3.60;;;3.20;;
12145;SDS011;6136;47.032;15.398;2023-06-14T12:24:08;6.60;;;3.72;;
12145;SDS011;6136;47.032;15.398;2023-06-14T12:26:41;3.47;;;3.17;;
12145;SDS011;6136;47.032;15.398;2023-06-14T12:29:09;5.60;;;3.25;;
12145;SDS011;6136;47.032;15.398;2023-06-14T12:31:39;5.78;;;3.50;;
12145;SDS011;6136;47.032;15.398;2023-06-14T12:34:08;3.70;;;3.40;;
12145;SDS011;6136;47.032;15.398;2023-06-14T12:36:36;3.58;;;3.28;;
12145;SDS011;6136;47.032;15.398;2023-06-14T12:39:08;3.80;;;3.50;;
12145;SDS011;6136;47.032;15.398;2023-06-14T12:41:36;4.53;;;3.25;;
12145;SDS011;6136;47.032;15.398;2023-06-14T12:44:06;3.80;;;3.40;;
12145;SDS011;6136;47.032;15.398;2023-06-14T12:46:34;7.07;;;3.83;;
12145;SDS011;6136;47.032;15.398;2023-06-14T12:49:03;3.85;;;3.47;;
12145;SDS011;6136;47.032;15.398;2023-06-14T12:51:31;7.72;;;3.50;;
12145;SDS011;6136;47.032;15.398;2023-06-14T12:54:00;5.38;;;3.60;;
12145;SDS011;6136;47.032;15.398;2023-06-14T12:56:28;5.75;;;3.33;;
12145;SDS011;6136;47.032;15.398;2023-06-14T12:58:56;3.97;;;3.30;;
12145;SDS011;6136;47.032;15.398;2023-06-14T13:01:27;4.38;;;3.50;;
12145;SDS011;6136;47.032;15.398;2023-06-14T13:03:55;4.10;;;3.42;;
12145;SDS011;6136;47.032;15.398;2023-06-14T13:06:24;3.55;;;3.25;;
12145;SDS011;6136;47.032;15.398;2023-06-14T13:08:52;3.63;;;3.03;;
12145;SDS011;6136;47.032;15.398;2023-06-14T13:11:21;3.45;;;3.15;;
12145;SDS011;6136;47.032;15.398;2023-06-14T13:13:49;4.20;;;3.72;;
12145;SDS011;6136;47.032;15.398;2023-06-14T13:16:17;4.60;;;3.28;;
12145;SDS011;6136;47.032;15.398;2023-06-14T13:18:47;4.50;;;3.20;;
12145;SDS011;6136;47.032;15.398;2023-06-14T13:21:15;4.20;;;3.80;;
12145;SDS011;6136;47.032;15.398;2023-06-14T13:23:43;4.00;;;3.60;;
12145;SDS011;6136;47.032;15.398;2023-06-14T13:26:11;4.40;;;3.35;;
12145;SDS011;6136;47.032;15.398;2023-06-14T13:28:40;3.35;;;3.05;;
12145;SDS011;6136;47.032;15.398;2023-06-14T13:31:08;3.30;;;2.88;;
12145;SDS011;6136;47.032;15.398;2023-06-14T13:33:36;3.92;;;3.10;;
12145;SDS011;6136;47.032;15.398;2023-06-14T13:36:06;3.80;;;3.35;;
12145;SDS011;6136;47.032;15.398;2023-06-14T13:38:34;3.92;;;3.50;;
12145;SDS011;6136;47.032;15.398;2023-06-14T13:41:02;3.55;;;3.25;;
12145;SDS011;6136;47.032;15.398;2023-06-14T13:43:31;4.35;;;3.67;;
12145;SDS011;6136;47.032;15.398;2023-06-14T13:45:59;3.20;;;2.90;;
12145;SDS011;6136;47.032;15.398;2023-06-14T13:48:28;5.15;;;3.30;;
12145;SDS011;6136;47.032;15.398;2023-06-14T13:50:56;3.33;;;3.03;;
12145;SDS011;6136;47.032;15.398;2023-06-14T13:53:26;5.07;;;3.30;;
12145;SDS011;6136;47.032;15.398;2023-06-14T13:55:54;7.40;;;3.30;;
12145;SDS011;6136;47.032;15.398;2023-06-14T13:58:22;3.40;;;3.10;;
12145;SDS011;6136;47.032;15.398;2023-06-14T14:00:51;3.50;;;3.20;;
12145;SDS011;6136;47.032;15.398;2023-06-14T14:03:19;3.88;;;3.05;;
12145;SDS011;6136;47.032;15.398;2023-06-14T14:05:47;3.95;;;3.53;;
12145;SDS011;6136;47.032;15.398;2023-06-14T14:08:16;4.22;;;3.20;;
12145;SDS011;6136;47.032;15.398;2023-06-14T14:10:45;6.60;;;3.15;;
12145;SDS011;6136;47.032;15.398;2023-06-14T14:13:14;3.40;;;3.08;;
12145;SDS011;6136;47.032;15.398;2023-06-14T14:15:42;3.78;;;3.20;;
12145;SDS011;6136;47.032;15.398;2023-06-14T14:18:10;5.43;;;3.40;;
12145;SDS011;6136;47.032;15.398;2023-06-14T14:20:39;4.68;;;3.38;;
12145;SDS011;6136;47.032;15.398;2023-06-14T14:23:07;4.03;;;3.03;;
12145;SDS011;6136;47.032;15.398;2023-06-14T14:25:35;5.53;;;3.53;;
12145;SDS011;6136;47.032;15.398;2023-06-14T14:28:05;3.42;;;3.13;;
12145;SDS011;6136;47.032;15.398;2023-06-14T14:30:33;6.05;;;3.45;;
12145;SDS011;6136;47.032;15.398;2023-06-14T14:33:04;3.30;;;3.00;;
12145;SDS011;6136;47.032;15.398;2023-06-14T14:35:33;3.50;;;3.20;;
12145;SDS011;6136;47.032;15.398;2023-06-14T14:38:01;3.60;;;3.10;;
12145;SDS011;6136;47.032;15.398;2023-06-14T14:40:31;4.28;;;3.25;;
12145;SDS011;6136;47.032;15.398;2023-06-14T14:42:59;3.65;;;3.20;;
12145;SDS011;6136;47.032;15.398;2023-06-14T14:45:29;4.95;;;3.10;;
12145;SDS011;6136;47.032;15.398;2023-06-14T14:47:57;5.32;;;2.83;;
12145;SDS011;6136;47.032;15.398;2023-06-14T14:50:25;3.50;;;3.03;;
12145;SDS011;6136;47.032;15.398;2023-06-14T14:52:54;4.60;;;3.30;;
12145;SDS011;6136;47.032;15.398;2023-06-14T14:55:22;3.78;;;3.38;;
12145;SDS011;6136;47.032;15.398;2023-06-14T14:57:50;3.15;;;2.85;;
12145;SDS011;6136;47.032;15.398;2023-06-14T15:00:19;4.82;;;3.65;;
12145;SDS011;6136;47.032;15.398;2023-06-14T15:02:48;3.65;;;3.22;;
12145;SDS011;6136;47.032;15.398;2023-06-14T15:05:17;3.17;;;2.88;;
12145;SDS011;6136;47.032;15.398;2023-06-14T15:07:45;4.82;;;3.08;;
12145;SDS011;6136;47.032;15.398;2023-06-14T15:10:13;4.22;;;3.67;;
12145;SDS011;6136;47.032;15.398;2023-06-14T15:12:42;3.58;;;3.28;;